createdAt,value
2018-12-05T00:00:19.331Z,91.40
2018-12-05T00:02:47.395Z,91.40
2018-12-05T00:05:15.340Z,91.60
2018-12-05T00:07:43.189Z,91.30
2018-12-05T00:10:11.001Z,91.70
2018-12-05T00:12:38.879Z,91.90
2018-12-05T00:15:07.363Z,92.20
2018-12-05T00:17:35.675Z,92.10
2018-12-05T00:20:04.475Z,92.10
2018-12-05T00:22:32.557Z,92.10
2018-12-05T00:25:00.441Z,92.20
2018-12-05T00:27:28.287Z,92.30
2018-12-05T00:29:56.254Z,92.60
2018-12-05T00:32:24.230Z,92.70
2018-12-05T00:34:52.296Z,92.70
2018-12-05T00:37:20.434Z,92.60
2018-12-05T00:39:48.269Z,92.70
2018-12-05T00:42:16.100Z,92.80
2018-12-05T00:44:43.951Z,92.70
2018-12-05T00:47:11.757Z,92.70
2018-12-05T00:49:39.554Z,92.90
2018-12-05T00:52:07.803Z,93.00
2018-12-05T00:54:35.639Z,93.40
2018-12-05T00:57:03.741Z,93.50
2018-12-05T00:59:31.889Z,93.30
2018-12-05T01:01:59.890Z,93.30
2018-12-05T01:04:27.758Z,93.40
2018-12-05T01:06:55.660Z,93.50
2018-12-05T01:09:23.606Z,93.50
2018-12-05T01:11:51.937Z,93.70
2018-12-05T01:14:19.770Z,93.60
2018-12-05T01:16:47.628Z,93.70
2018-12-05T01:19:15.443Z,93.80
2018-12-05T01:24:44.003Z,94.20
2018-12-05T01:27:12.005Z,94.20
2018-12-05T01:29:39.817Z,94.20
2018-12-05T01:32:07.810Z,94.30
2018-12-05T01:34:35.713Z,94.40
2018-12-05T01:37:03.749Z,94.50
2018-12-05T01:39:31.545Z,94.50
2018-12-05T01:41:59.344Z,94.60
2018-12-05T01:44:27.205Z,94.80
2018-12-05T01:46:55.286Z,95.10
2018-12-05T01:49:23.349Z,94.70
2018-12-05T01:51:51.752Z,94.90
2018-12-05T01:54:19.698Z,95.40
2018-12-05T01:56:47.572Z,95.20
2018-12-05T01:59:15.666Z,95.20
2018-12-05T02:01:43.661Z,95.20
2018-12-05T02:04:11.613Z,94.90
2018-12-05T02:06:39.757Z,95.00
2018-12-05T02:09:08.973Z,95.00
2018-12-05T02:11:38.855Z,95.00
2018-12-05T02:14:06.835Z,95.00
2018-12-05T02:16:34.629Z,95.00
2018-12-05T02:19:02.605Z,95.10
2018-12-05T02:21:30.819Z,95.20
2018-12-05T02:23:58.701Z,95.20
2018-12-05T02:26:26.574Z,95.20
2018-12-05T02:28:54.380Z,95.30
2018-12-05T02:31:22.445Z,95.50
2018-12-05T02:33:50.259Z,95.40
2018-12-05T02:36:18.836Z,95.40
2018-12-05T02:38:46.721Z,95.50
2018-12-05T02:41:14.645Z,95.50
2018-12-05T02:43:42.601Z,95.50
2018-12-05T02:46:10.489Z,95.50
2018-12-05T02:48:38.570Z,95.60
2018-12-05T02:51:06.518Z,95.60
2018-12-05T02:53:34.489Z,95.60
2018-12-05T02:56:02.436Z,95.70
2018-12-05T02:58:30.261Z,95.70
2018-12-05T03:00:59.660Z,95.70
2018-12-05T03:03:27.966Z,95.80
2018-12-05T03:05:57.070Z,95.80
2018-12-05T03:08:24.906Z,96.00
2018-12-05T03:10:55.467Z,96.00
2018-12-05T03:13:23.459Z,96.00
2018-12-05T03:15:51.382Z,96.00
2018-12-05T03:18:19.148Z,96.00
2018-12-05T03:20:47.074Z,96.00
2018-12-05T03:23:16.148Z,96.10
2018-12-05T03:25:44.062Z,96.10
2018-12-05T03:28:11.841Z,96.20
2018-12-05T03:30:39.711Z,96.20
2018-12-05T03:33:08.290Z,96.20
2018-12-05T03:35:38.321Z,96.10
2018-12-05T03:38:06.617Z,96.30
2018-12-05T03:40:34.675Z,96.10
2018-12-05T03:43:02.688Z,96.10
2018-12-05T03:45:31.644Z,96.10
2018-12-05T03:48:00.188Z,96.40
2018-12-05T03:50:28.214Z,96.40
2018-12-05T03:52:56.034Z,96.70
2018-12-05T03:55:23.902Z,96.90
2018-12-05T03:57:51.757Z,97.00
2018-12-05T04:00:19.578Z,96.70
2018-12-05T04:02:47.500Z,96.60
2018-12-05T04:05:15.309Z,96.40
2018-12-05T04:07:43.223Z,96.00
2018-12-05T04:10:11.399Z,95.70
2018-12-05T04:12:40.803Z,95.60
2018-12-05T04:15:09.221Z,95.50
2018-12-05T04:17:37.102Z,95.40
2018-12-05T04:20:05.200Z,95.60
2018-12-05T04:22:34.116Z,95.60
2018-12-05T04:25:01.873Z,95.90
2018-12-05T04:27:29.629Z,95.60
2018-12-05T04:29:57.442Z,95.50
2018-12-05T04:32:25.257Z,95.30
2018-12-05T04:34:53.287Z,95.10
2018-12-05T04:37:21.255Z,95.20
2018-12-05T04:39:49.168Z,95.00
2018-12-05T04:42:20.900Z,95.30
2018-12-05T04:44:48.714Z,95.20
2018-12-05T04:47:16.783Z,95.80
2018-12-05T04:49:44.706Z,95.60
2018-12-05T04:52:12.729Z,95.60
2018-12-05T04:54:40.527Z,95.60
2018-12-05T04:57:08.612Z,95.60
2018-12-05T04:59:36.374Z,95.60
2018-12-05T05:02:04.505Z,95.70
2018-12-05T05:07:07.138Z,95.90
2018-12-05T05:09:35.179Z,96.10
2018-12-05T05:12:03.102Z,96.00
2018-12-05T05:14:31.303Z,95.90
2018-12-05T05:16:59.146Z,95.80
2018-12-05T05:19:27.088Z,95.90
2018-12-05T05:21:59.037Z,95.90
2018-12-05T05:24:26.800Z,96.00
2018-12-05T05:26:54.689Z,96.00
2018-12-05T05:29:22.729Z,96.00
2018-12-05T05:31:50.549Z,96.20
2018-12-05T05:34:18.561Z,96.00
2018-12-05T05:36:46.492Z,96.10
2018-12-05T05:39:14.312Z,96.10
2018-12-05T05:41:42.169Z,96.10
2018-12-05T05:44:10.344Z,96.10
2018-12-05T05:46:38.318Z,96.20
2018-12-05T05:49:06.498Z,96.10
2018-12-05T05:51:34.402Z,96.10
2018-12-05T05:54:02.544Z,96.20
2018-12-05T05:56:30.446Z,96.30
2018-12-05T05:58:58.261Z,96.30
2018-12-05T06:01:26.286Z,96.60
2018-12-05T06:03:54.762Z,96.40
2018-12-05T06:06:22.552Z,96.50
2018-12-05T06:08:50.573Z,96.50
2018-12-05T06:11:18.592Z,96.50
2018-12-05T06:13:46.684Z,96.50
2018-12-05T06:16:14.575Z,96.50
2018-12-05T06:18:42.491Z,96.40
2018-12-05T06:21:13.192Z,96.60
2018-12-05T06:23:41.053Z,96.20
2018-12-05T06:26:09.226Z,96.10
2018-12-05T06:28:37.899Z,96.20
2018-12-05T06:31:05.975Z,96.20
2018-12-05T06:33:33.782Z,96.30
2018-12-05T06:36:01.720Z,96.40
2018-12-05T06:38:29.549Z,96.30
2018-12-05T06:40:58.236Z,96.30
2018-12-05T06:43:26.023Z,96.30
2018-12-05T06:45:53.908Z,96.60
2018-12-05T06:48:21.685Z,96.50
2018-12-05T06:50:49.620Z,96.30
2018-12-05T06:53:17.637Z,96.00
2018-12-05T06:55:45.437Z,95.90
2018-12-05T06:58:13.270Z,96.00
2018-12-05T07:00:41.069Z,96.10
2018-12-05T07:03:08.965Z,95.90
2018-12-05T07:05:36.864Z,95.70
2018-12-05T07:08:04.691Z,95.40
2018-12-05T07:10:32.663Z,95.10
2018-12-05T07:13:00.552Z,95.20
2018-12-05T07:15:28.386Z,94.90
2018-12-05T07:17:56.297Z,94.70
2018-12-05T07:20:24.231Z,94.50
2018-12-05T07:22:52.053Z,94.40
2018-12-05T07:25:20.008Z,94.40
2018-12-05T07:27:49.070Z,94.50
2018-12-05T07:30:16.974Z,94.30
2018-12-05T07:32:44.959Z,94.00
2018-12-05T07:35:12.756Z,93.70
2018-12-05T07:37:40.598Z,93.70
2018-12-05T07:40:08.921Z,93.80
2018-12-05T07:42:37.071Z,93.60
2018-12-05T07:45:05.397Z,93.00
2018-12-05T07:47:33.347Z,92.80
2018-12-05T07:50:01.341Z,92.60
2018-12-05T07:52:29.106Z,92.40
2018-12-05T07:54:57.018Z,92.20
2018-12-05T07:57:24.801Z,91.90
2018-12-05T07:59:52.717Z,92.20
2018-12-05T08:02:20.618Z,89.40
2018-12-05T08:04:48.377Z,83.30
2018-12-05T08:07:16.260Z,78.70
2018-12-05T08:09:44.735Z,74.20
2018-12-05T08:12:12.722Z,73.20
2018-12-05T08:14:41.548Z,71.00
2018-12-05T08:17:09.870Z,72.20
2018-12-05T08:19:37.753Z,71.00
2018-12-05T08:22:05.725Z,70.40
2018-12-05T08:24:34.696Z,66.80
2018-12-05T08:27:02.851Z,65.50
2018-12-05T08:29:30.724Z,63.80
2018-12-05T08:31:58.784Z,60.30
2018-12-05T08:34:26.701Z,59.10
2018-12-05T08:36:54.610Z,57.30
2018-12-05T08:39:23.042Z,56.70
2018-12-05T08:41:50.810Z,59.60
2018-12-05T08:44:18.722Z,61.70
2018-12-05T08:46:46.632Z,60.30
2018-12-05T08:49:14.429Z,61.90
2018-12-05T08:51:42.677Z,64.50
2018-12-05T08:54:10.749Z,62.00
2018-12-05T08:56:38.661Z,56.70
2018-12-05T08:59:06.569Z,56.40
2018-12-05T09:01:34.911Z,56.70
2018-12-05T09:04:03.039Z,58.40
2018-12-05T09:06:30.889Z,61.30
2018-12-05T09:08:59.080Z,64.10
2018-12-05T09:11:26.938Z,67.10
2018-12-05T09:13:54.824Z,70.10
2018-12-05T09:16:22.827Z,72.40
2018-12-05T09:18:50.912Z,73.40
2018-12-05T09:21:18.930Z,74.10
2018-12-05T09:23:47.326Z,75.30
2018-12-05T09:26:15.514Z,75.30
2018-12-05T09:28:43.313Z,73.20
2018-12-05T09:31:11.519Z,69.30
2018-12-05T09:33:39.486Z,65.90
2018-12-05T09:36:07.473Z,62.10
2018-12-05T09:38:35.421Z,57.10
2018-12-05T09:41:03.492Z,54.20
2018-12-05T09:43:31.431Z,51.20
2018-12-05T09:45:59.489Z,50.30
2018-12-05T09:48:28.464Z,51.30
2018-12-05T09:50:56.826Z,53.10
2018-12-05T09:53:25.186Z,53.80
2018-12-05T09:55:53.050Z,53.00
2018-12-05T09:58:20.981Z,53.90
2018-12-05T10:00:49.616Z,55.10
2018-12-05T10:03:17.550Z,54.30
2018-12-05T10:05:45.369Z,55.40
2018-12-05T10:08:13.430Z,54.00
2018-12-05T10:10:41.258Z,53.70
2018-12-05T10:13:09.378Z,55.20
2018-12-05T10:15:37.289Z,57.80
2018-12-05T10:18:07.111Z,59.70
2018-12-05T10:20:35.109Z,56.00
2018-12-05T10:23:03.229Z,53.80
2018-12-05T10:25:31.033Z,53.00
2018-12-05T10:27:59.139Z,54.20
2018-12-05T10:30:27.162Z,55.50
2018-12-05T10:32:55.040Z,57.40
2018-12-05T10:35:26.666Z,58.20
2018-12-05T10:37:54.759Z,53.10
2018-12-05T10:40:22.777Z,47.10
2018-12-05T10:42:50.965Z,41.40
2018-12-05T10:45:18.893Z,38.50
2018-12-05T10:47:46.897Z,38.60
2018-12-05T10:50:15.033Z,40.70
2018-12-05T10:52:43.076Z,43.60
2018-12-05T10:55:25.522Z,46.10
2018-12-05T10:57:53.462Z,48.60
2018-12-05T11:00:26.931Z,50.80
2018-12-05T11:03:00.697Z,48.90
2018-12-05T11:05:34.389Z,44.20
2018-12-05T11:08:09.189Z,42.70
2018-12-05T11:10:42.651Z,42.00
2018-12-05T11:13:16.057Z,41.40
2018-12-05T11:15:49.715Z,40.20
2018-12-05T11:18:23.155Z,40.10
2018-12-05T11:20:57.521Z,37.00
2018-12-05T11:23:32.473Z,34.30
2018-12-05T11:26:04.914Z,32.20
2018-12-05T11:28:33.999Z,30.30
2018-12-05T11:31:02.043Z,31.20
2018-12-05T11:33:30.176Z,31.70
2018-12-05T11:35:58.100Z,34.20
2018-12-05T11:38:25.861Z,36.20
2018-12-05T11:40:53.773Z,39.60
2018-12-05T11:43:21.885Z,42.00
2018-12-05T11:45:49.744Z,43.60
2018-12-05T11:48:17.560Z,45.60
2018-12-05T11:50:45.372Z,46.00
2018-12-05T11:53:13.241Z,45.00
2018-12-05T11:55:41.100Z,45.40
2018-12-05T11:58:11.519Z,46.50
2018-12-05T12:00:39.393Z,47.60
2018-12-05T12:03:07.449Z,47.30
2018-12-05T12:05:37.611Z,47.30
2018-12-05T12:08:05.441Z,47.40
2018-12-05T12:10:39.536Z,45.50
2018-12-05T12:13:08.398Z,43.10
2018-12-05T12:15:36.714Z,44.10
2018-12-05T12:18:06.400Z,46.20
2018-12-05T12:20:34.642Z,47.00
2018-12-05T12:23:02.477Z,48.60
2018-12-05T12:25:33.261Z,46.40
2018-12-05T12:28:01.059Z,42.80
2018-12-05T12:30:28.960Z,40.70
2018-12-05T12:32:56.861Z,41.00
2018-12-05T12:35:24.644Z,41.10
2018-12-05T12:37:52.478Z,41.20
2018-12-05T12:40:21.206Z,40.00
2018-12-05T12:42:49.166Z,37.50
2018-12-05T12:45:17.293Z,35.50
2018-12-05T12:47:49.213Z,35.60
2018-12-05T12:50:18.455Z,37.60
2018-12-05T12:52:46.481Z,38.00
2018-12-05T12:55:14.421Z,37.60
2018-12-05T12:57:43.399Z,36.50
2018-12-05T13:00:11.452Z,35.50
2018-12-05T13:02:39.347Z,36.00
2018-12-05T13:05:07.397Z,35.90
2018-12-05T13:07:35.332Z,35.40
2018-12-05T13:10:04.329Z,34.70
2018-12-05T13:12:34.157Z,34.80
2018-12-05T13:15:02.781Z,35.10
2018-12-05T13:17:30.869Z,35.10
2018-12-05T13:19:58.985Z,34.50
2018-12-05T13:22:26.806Z,34.70
2018-12-05T13:24:54.705Z,34.40
2018-12-05T13:27:22.473Z,34.70
2018-12-05T13:29:50.369Z,35.00
2018-12-05T13:32:18.608Z,35.00
2018-12-05T13:34:46.485Z,35.60
2018-12-05T13:37:15.399Z,35.90
2018-12-05T13:39:43.562Z,35.80
2018-12-05T13:42:11.485Z,35.80
2018-12-05T13:44:42.295Z,36.60
2018-12-05T13:47:10.888Z,38.10
2018-12-05T13:49:39.333Z,40.90
2018-12-05T13:52:07.568Z,42.70
2018-12-05T13:54:36.633Z,43.20
2018-12-05T13:57:04.900Z,43.90
2018-12-05T13:59:32.822Z,44.40
2018-12-05T14:02:00.797Z,45.50
2018-12-05T14:04:28.582Z,46.50
2018-12-05T14:06:56.556Z,47.80
2018-12-05T14:09:26.291Z,50.30
2018-12-05T14:11:54.112Z,51.80
2018-12-05T14:14:22.269Z,53.30
2018-12-05T14:17:05.577Z,55.40
2018-12-05T14:19:33.695Z,57.20
2018-12-05T14:22:02.931Z,58.50
2018-12-05T14:24:34.900Z,60.30
2018-12-05T14:27:03.157Z,63.00
2018-12-05T14:29:31.136Z,63.50
2018-12-05T14:32:01.506Z,65.70
2018-12-05T14:34:31.401Z,67.40
2018-12-05T14:37:03.524Z,68.40
2018-12-05T14:39:33.015Z,70.10
2018-12-05T14:42:01.247Z,71.00
2018-12-05T14:44:29.065Z,72.30
2018-12-05T14:47:00.690Z,73.70
2018-12-05T14:49:33.404Z,74.10
2018-12-05T14:52:01.561Z,75.10
2018-12-05T14:54:31.921Z,75.70
2018-12-05T14:57:01.835Z,76.50
2018-12-05T14:59:31.842Z,77.00
2018-12-05T15:02:03.980Z,77.60
2018-12-05T15:04:35.967Z,78.20
2018-12-05T15:07:09.300Z,79.00
2018-12-05T15:09:40.621Z,79.60
2018-12-05T15:12:10.096Z,79.90
2018-12-05T15:14:37.985Z,80.60
2018-12-05T15:17:12.827Z,81.10
2018-12-05T15:19:44.389Z,81.70
2018-12-05T15:22:16.433Z,82.10
2018-12-05T15:24:44.922Z,82.60
2018-12-05T15:27:14.886Z,83.40
2018-12-05T15:29:49.882Z,83.70
2018-12-05T15:32:19.756Z,84.20
2018-12-05T15:34:52.512Z,84.50
2018-12-05T15:37:24.516Z,84.90
2018-12-05T15:39:53.852Z,85.00
2018-12-05T15:42:21.781Z,85.50
2018-12-05T15:44:50.193Z,85.50
2018-12-05T15:47:18.269Z,85.90
2018-12-05T15:49:46.244Z,86.80
2018-12-05T15:52:14.442Z,87.20
2018-12-05T15:54:42.466Z,87.40
2018-12-05T15:57:10.389Z,87.60
2018-12-05T15:59:38.380Z,88.30
2018-12-05T16:02:06.433Z,89.00
2018-12-05T16:04:34.403Z,89.20
2018-12-05T16:07:03.573Z,88.90
2018-12-05T16:09:31.383Z,89.20
2018-12-05T16:11:59.459Z,90.00
2018-12-05T16:14:27.329Z,90.20
2018-12-05T16:16:55.214Z,90.20
2018-12-05T16:19:23.478Z,90.20
2018-12-05T16:21:51.905Z,90.30
2018-12-05T16:24:19.818Z,90.40
2018-12-05T16:26:47.717Z,90.60
2018-12-05T16:29:15.733Z,90.70
2018-12-05T16:31:43.549Z,90.70
2018-12-05T16:34:11.373Z,90.90
2018-12-05T16:36:39.133Z,90.90
2018-12-05T16:39:08.061Z,91.00
2018-12-05T16:41:36.370Z,91.20
2018-12-05T16:44:05.011Z,91.20
2018-12-05T16:46:33.790Z,91.30
2018-12-05T16:49:01.613Z,91.40
2018-12-05T16:51:29.569Z,91.40
2018-12-05T16:53:57.941Z,91.50
2018-12-05T16:59:08.669Z,91.60
2018-12-05T17:01:36.460Z,91.60
2018-12-05T17:04:04.519Z,91.70
2018-12-05T17:06:32.933Z,91.70
2018-12-05T17:09:02.178Z,91.80
2018-12-05T17:11:32.042Z,91.80
2018-12-05T17:14:00.159Z,92.00
2018-12-05T17:16:28.011Z,92.10
2018-12-05T17:18:55.995Z,92.00
2018-12-05T17:21:24.012Z,92.00
2018-12-05T17:23:52.503Z,92.20
2018-12-05T17:26:20.449Z,92.10
2018-12-05T17:28:48.298Z,91.90
2018-12-05T17:31:16.194Z,91.80
2018-12-05T17:33:44.078Z,91.80
2018-12-05T17:36:12.091Z,91.90
2018-12-05T17:38:39.909Z,91.90
2018-12-05T17:41:07.934Z,91.90
2018-12-05T17:43:36.087Z,91.90
2018-12-05T17:46:04.132Z,92.00
2018-12-05T17:48:32.212Z,92.20
2018-12-05T17:51:00.044Z,92.20
2018-12-05T17:53:27.857Z,92.00
2018-12-05T17:55:55.945Z,91.90
2018-12-05T17:58:23.998Z,91.90
2018-12-05T18:00:52.231Z,91.90
2018-12-05T18:03:20.537Z,92.00
2018-12-05T18:05:48.399Z,92.00
2018-12-05T18:08:16.274Z,92.00
2018-12-05T18:10:44.239Z,91.90
2018-12-05T18:13:16.981Z,91.80
2018-12-05T18:15:45.461Z,91.80
2018-12-05T18:18:13.435Z,91.70
2018-12-05T18:20:41.602Z,91.70
2018-12-05T18:23:11.158Z,91.60
2018-12-05T18:25:39.304Z,91.60
2018-12-05T18:28:07.182Z,91.50
2018-12-05T18:30:35.640Z,91.50
2018-12-05T18:33:03.666Z,91.40
2018-12-05T18:35:31.953Z,91.40
2018-12-05T18:37:59.822Z,91.40
2018-12-05T18:40:27.754Z,91.40
2018-12-05T18:42:59.133Z,91.30
2018-12-05T18:45:27.044Z,91.60
2018-12-05T18:47:55.137Z,91.20
2018-12-05T18:50:23.181Z,91.20
2018-12-05T18:52:51.214Z,91.20
2018-12-05T18:55:19.277Z,91.10
2018-12-05T18:57:47.461Z,91.20
2018-12-05T19:00:15.591Z,91.20
2018-12-05T19:02:43.733Z,91.20
2018-12-05T19:05:11.563Z,91.10
2018-12-05T19:07:39.396Z,91.20
2018-12-05T19:10:30.432Z,91.30
2018-12-05T19:12:58.342Z,91.30
2018-12-05T19:15:30.057Z,91.70
2018-12-05T19:17:58.215Z,91.30
2018-12-05T19:20:26.467Z,91.20
2018-12-05T19:22:54.449Z,91.20
2018-12-05T19:25:23.163Z,91.20
2018-12-05T19:27:51.187Z,91.30
2018-12-05T19:30:19.357Z,91.20
2018-12-05T19:32:47.331Z,91.00
2018-12-05T19:35:15.264Z,90.80
2018-12-05T19:37:43.178Z,90.70
2018-12-05T19:40:11.288Z,90.60
2018-12-05T19:42:40.275Z,90.40
2018-12-05T19:45:08.764Z,90.50
2018-12-05T19:47:36.878Z,90.60
2018-12-05T19:50:05.932Z,90.40
2018-12-05T19:52:33.975Z,90.30
2018-12-05T19:55:04.355Z,90.30
2018-12-05T19:57:37.147Z,90.20
2018-12-05T20:00:08.249Z,90.20
2018-12-05T20:02:38.754Z,90.10
2018-12-05T20:05:07.003Z,90.10
2018-12-05T20:07:34.872Z,90.20
2018-12-05T20:10:04.617Z,90.20
2018-12-05T20:12:32.875Z,90.20
2018-12-05T20:15:00.895Z,90.10
2018-12-05T20:17:28.890Z,90.00
2018-12-05T20:19:57.244Z,89.80
2018-12-05T20:22:25.223Z,89.80
2018-12-05T20:24:53.086Z,89.70
2018-12-05T20:27:22.254Z,89.60
2018-12-05T20:29:54.450Z,89.50
2018-12-05T20:32:22.431Z,89.40
2018-12-05T20:34:50.332Z,89.20
2018-12-05T20:37:18.227Z,89.50
2018-12-05T20:39:50.713Z,89.20
2018-12-05T20:42:18.559Z,89.30
2018-12-05T20:44:46.354Z,89.20
2018-12-05T20:47:15.502Z,89.60
2018-12-05T20:49:43.602Z,89.00
2018-12-05T20:52:11.535Z,88.70
2018-12-05T20:54:43.615Z,88.60
2018-12-05T20:57:11.526Z,88.40
2018-12-05T20:59:39.399Z,88.40
2018-12-05T21:02:09.461Z,88.30
2018-12-05T21:04:37.549Z,88.20
2018-12-05T21:07:05.582Z,88.60
2018-12-05T21:09:33.419Z,88.60
2018-12-05T21:12:11.142Z,88.50
2018-12-05T21:14:39.590Z,89.30
2018-12-05T21:17:07.563Z,89.20
2018-12-05T21:19:37.141Z,88.50
2018-12-05T21:22:06.167Z,88.90
2018-12-05T21:24:48.975Z,88.70
2018-12-05T21:27:19.654Z,88.80
2018-12-05T21:29:48.342Z,88.80
2018-12-05T21:32:16.342Z,88.40
2018-12-05T21:34:44.202Z,88.60
2018-12-05T21:37:12.194Z,88.70
2018-12-05T21:39:40.728Z,88.80
2018-12-05T21:42:09.070Z,88.80
2018-12-05T21:44:37.250Z,88.70
2018-12-05T21:47:05.222Z,89.00
2018-12-05T21:49:33.217Z,89.00
2018-12-05T21:52:01.115Z,89.00
2018-12-05T21:54:29.038Z,88.80
2018-12-05T21:56:56.942Z,89.20
2018-12-05T21:59:24.944Z,89.70
2018-12-05T22:01:53.047Z,89.70
2018-12-05T22:04:20.923Z,89.50
2018-12-05T22:06:48.951Z,89.40
2018-12-05T22:09:16.864Z,89.40
2018-12-05T22:11:44.898Z,89.50
2018-12-05T22:14:12.986Z,89.40
2018-12-05T22:16:41.079Z,89.30
2018-12-05T22:19:09.023Z,89.30
2018-12-05T22:21:37.508Z,89.50
2018-12-05T22:24:05.529Z,89.20
2018-12-05T22:26:36.310Z,89.20
2018-12-05T22:29:04.453Z,89.00
2018-12-05T22:31:32.323Z,89.20
2018-12-05T22:34:00.203Z,89.40
2018-12-05T22:36:30.774Z,89.60
2018-12-05T22:38:58.638Z,90.10
2018-12-05T22:41:26.671Z,90.10
2018-12-05T22:43:54.634Z,89.80
2018-12-05T22:46:22.671Z,89.50
2018-12-05T22:48:50.616Z,89.50
2018-12-05T22:51:18.476Z,89.70
2018-12-05T22:53:46.382Z,90.00
2018-12-05T22:56:14.226Z,90.00
2018-12-05T22:58:42.039Z,89.90
2018-12-05T23:01:10.195Z,89.60
2018-12-05T23:03:39.117Z,89.70
2018-12-05T23:06:08.008Z,89.50
2018-12-05T23:08:36.177Z,89.60
2018-12-05T23:11:04.337Z,89.60
2018-12-05T23:13:32.270Z,90.00
2018-12-05T23:16:01.357Z,90.00
2018-12-05T23:18:29.378Z,90.00
2018-12-05T23:20:58.068Z,90.00
2018-12-05T23:23:26.078Z,90.10
2018-12-05T23:25:54.055Z,90.10
2018-12-05T23:28:21.982Z,90.10
2018-12-05T23:30:49.926Z,90.10
2018-12-05T23:33:17.844Z,90.20
2018-12-05T23:35:45.709Z,90.30
2018-12-05T23:38:14.537Z,90.20
2018-12-05T23:40:42.465Z,90.20
2018-12-05T23:43:10.319Z,90.20
2018-12-05T23:45:38.575Z,90.30
2018-12-05T23:48:06.545Z,90.20
2018-12-05T23:50:34.498Z,90.30
2018-12-05T23:53:02.485Z,90.40
2018-12-05T23:55:30.524Z,90.80
2018-12-05T23:57:58.448Z,90.70
